Time;durP1;ratioP1;P1;durP2;ratioP2;P2;SDS_P1;SDS_P2;PMS_P1;PMS_P2;Temp;Humidity;BMP_temperature;BMP_pressure;BME280_temperature;BME280_humidity;BME280_pressure;Samples;Min_cycle;Max_cycle;Signal;HPM_P1;HPM_P2
2023/06/05 00:04:46;;;;;;;;;;;;;;;15.57;100.00;98175.50;10325321;28;20033;-51
2023/06/05 00:09:45;;;;;;;12.40;8.20;;;;;;;15.63;100.00;98178.91;10325195;28;19964;-49
2023/06/05 00:14:44;;;;;;;15.68;7.93;;;;;;;15.63;100.00;98175.44;10324916;28;20079;-52
2023/06/05 00:19:43;;;;;;;15.45;7.80;;;;;;;15.65;100.00;98165.81;10325013;28;20025;-51
2023/06/05 00:24:42;;;;;;;14.50;8.48;;;;;;;15.60;100.00;98155.44;10324563;28;20563;-52
2023/06/05 00:29:41;;;;;;;11.73;8.02;;;;;;;15.65;100.00;98169.28;10325341;28;20120;-49
2023/06/05 00:34:40;;;;;;;12.45;7.50;;;;;;;15.48;100.00;98150.34;10329356;28;20049;-49
2023/06/05 00:39:40;;;;;;;13.40;8.32;;;;;;;15.60;100.00;98176.34;10333677;28;20508;-51
2023/06/05 00:44:40;;;;;;;13.25;7.93;;;;;;;15.61;100.00;98172.84;10336453;28;20061;-52
2023/06/05 00:49:39;;;;;;;14.20;7.43;;;;;;;15.60;100.00;98157.16;10335164;28;20069;-51
2023/06/05 00:54:40;;;;;;;13.00;8.15;;;;;;;15.61;100.00;98157.13;10336106;28;20069;-51
2023/06/05 00:59:40;;;;;;;16.10;8.90;;;;;;;15.59;100.00;98148.44;10335515;28;20473;-52
2023/06/05 01:04:46;;;;;;;11.00;7.68;;;;;;;15.59;100.00;98153.69;10336010;28;20079;-49
2023/06/05 01:09:45;;;;;;;12.02;7.03;;;;;;;15.58;100.00;98146.72;10335849;28;20064;-49
2023/06/05 01:14:48;;;;;;;12.75;7.85;;;;;;;15.55;100.00;98125.88;10335576;28;20017;-51
2023/06/05 01:19:49;;;;;;;15.18;8.82;;;;;;;15.54;100.00;98128.50;10334632;28;20057;-52
2023/06/05 01:24:48;;;;;;;11.98;8.00;;;;;;;15.49;100.00;98122.47;10335647;28;20076;-51
2023/06/05 01:29:55;;;;;;;12.38;7.10;;;;;;;15.50;100.00;98118.94;10334771;28;20041;-50
2023/06/05 01:34:54;;;;;;;11.27;7.43;;;;;;;15.49;100.00;98117.22;10334480;28;20367;-49
2023/06/05 01:39:55;;;;;;;11.52;7.10;;;;;;;15.46;100.00;98113.78;10333327;28;20073;-50
2023/06/05 01:44:54;;;;;;;9.45;6.43;;;;;;;15.43;100.00;98120.78;10330391;28;20065;-52
2023/06/05 01:49:54;;;;;;;10.52;7.32;;;;;;;15.29;100.00;98096.59;10329741;28;20120;-50
2023/06/05 01:54:54;;;;;;;8.70;6.45;;;;;;;15.42;100.00;98119.06;10331111;28;20073;-49
2023/06/05 01:59:54;;;;;;;11.00;6.95;;;;;;;15.36;100.00;98113.91;10329863;28;20068;-52
2023/06/05 02:04:53;;;;;;;10.32;7.15;;;;;;;15.22;100.00;98107.16;10329652;28;20084;-52
2023/06/05 02:09:52;;;;;;;12.05;7.57;;;;;;;15.22;100.00;98091.47;10329875;28;20076;-51
2023/06/05 02:14:51;;;;;;;14.60;7.78;;;;;;;15.23;100.00;98093.19;10329702;28;20029;-50
2023/06/05 02:19:51;;;;;;;11.88;7.50;;;;;;;15.19;100.00;98091.50;10328579;28;20124;-51
2023/06/05 02:24:53;;;;;;;12.90;6.95;;;;;;;15.24;100.00;98099.28;10329317;28;20077;-51
2023/06/05 02:29:52;;;;;;;16.33;7.72;;;;;;;15.01;100.00;98097.84;10328912;28;20108;-49
2023/06/05 02:34:51;;;;;;;17.90;9.43;;;;;;;14.97;100.00;98093.53;10328712;28;20022;-49
2023/06/05 02:39:50;;;;;;;17.05;9.20;;;;;;;15.05;100.00;98103.88;10328427;28;20072;-50
2023/06/05 02:44:49;;;;;;;16.90;9.23;;;;;;;15.04;100.00;98105.66;10332003;28;20079;-51
2023/06/05 02:49:48;;;;;;;13.63;8.20;;;;;;;15.14;100.00;98098.53;10330744;28;20041;-51
2023/06/05 02:54:47;;;;;;;15.55;7.88;;;;;;;15.18;100.00;98100.25;10329870;28;20025;-49
2023/06/05 02:59:46;;;;;;;13.57;8.45;;;;;;;15.20;100.00;98093.25;10331053;28;20060;-49
2023/06/05 03:04:48;;;;;;;12.10;6.72;;;;;;;15.23;100.00;98093.19;10330690;28;20470;-51
2023/06/05 03:09:47;;;;;;;10.30;6.10;;;;;;;15.07;100.00;98109.97;10330146;28;20515;-51
2023/06/05 03:14:46;;;;;;;10.85;5.97;;;;;;;14.82;100.00;98101.56;10330224;28;20480;-52
2023/06/05 03:19:45;;;;;;;10.15;5.80;;;;;;;14.74;100.00;98103.44;10330598;28;20131;-51
2023/06/05 03:24:45;;;;;;;11.98;6.40;;;;;;;14.67;100.00;98112.19;10330178;28;20112;-51
2023/06/05 03:29:44;;;;;;;11.90;6.05;;;;;;;14.60;100.00;98116.63;10329946;28;20077;-52
2023/06/05 03:34:48;;;;;;;12.48;6.60;;;;;;;14.68;100.00;98125.22;10329753;28;20128;-51
2023/06/05 03:39:47;;;;;;;9.38;6.43;;;;;;;14.45;100.00;98122.00;10328908;28;20072;-48
2023/06/05 03:44:46;;;;;;;12.15;6.45;;;;;;;14.38;100.00;98119.47;10325626;28;20021;-54
2023/06/05 03:49:47;;;;;;;10.07;6.28;;;;;;;14.39;100.00;98118.56;10325344;28;20045;-52
2023/06/05 03:54:46;;;;;;;15.27;6.53;;;;;;;14.38;100.00;98122.06;10326026;28;20184;-51
2023/06/05 03:59:46;;;;;;;12.20;6.22;;;;;;;14.14;100.00;98122.31;10324687;28;20072;-50
2023/06/05 04:04:45;;;;;;;12.48;7.05;;;;;;;14.21;100.00;98118.75;10326045;28;20064;-50
2023/06/05 04:09:45;;;;;;;15.25;7.95;;;;;;;14.40;100.00;98129.88;10324590;28;20056;-54
2023/06/05 04:14:45;;;;;;;15.07;9.10;;;;;;;14.30;100.00;98128.25;10324763;28;20040;-50
2023/06/05 04:19:44;;;;;;;12.95;8.00;;;;;;;14.53;100.00;98138.47;10325452;28;20073;-51
2023/06/05 04:24:43;;;;;;;13.48;8.23;;;;;;;14.78;100.00;98144.28;10324894;28;20025;-52
2023/06/05 04:29:44;;;;;;;14.43;8.13;;;;;;;14.95;100.00;98139.75;10324020;28;20529;-52
2023/06/05 04:34:43;;;;;;;14.68;9.50;;;;;;;15.15;100.00;98138.59;10324464;28;20544;-52
2023/06/05 04:39:43;;;;;;;17.83;8.82;;;;;;;15.41;100.00;98138.25;10323922;28;20049;-52
2023/06/05 04:44:42;;;;;;;19.08;9.77;;;;;;;15.63;100.00;98138.81;10322440;28;21049;-52
2023/06/05 04:49:41;;;;;;;20.27;10.18;;;;;;;15.87;100.00;98145.44;10321849;28;20042;-52
2023/06/05 04:54:40;;;;;;;20.17;9.73;;;;;;;16.04;100.00;98146.03;10324116;28;20152;-51
2023/06/05 04:59:40;;;;;;;19.83;10.57;;;;;;;16.21;100.00;98137.03;10324745;28;20108;-53
2023/06/05 05:04:39;;;;;;;20.02;9.90;;;;;;;16.37;100.00;98133.25;10324068;28;20528;-52
2023/06/05 05:09:37;;;;;;;19.35;10.60;;;;;;;16.60;100.00;98139.81;10323086;28;20551;-52
2023/06/05 05:14:37;;;;;;;17.30;10.38;;;;;;;16.78;99.17;98144.69;10323222;28;20555;-51
2023/06/05 05:19:39;;;;;;;18.85;10.68;;;;;;;16.82;96.60;98140.31;10327182;28;20464;-50
2023/06/05 05:24:38;;;;;;;16.40;9.32;;;;;;;16.66;95.31;98140.56;10330813;28;20108;-52
2023/06/05 05:29:37;;;;;;;19.33;10.57;;;;;;;16.66;95.56;98139.69;10330596;28;20125;-51
2023/06/05 05:34:36;;;;;;;18.58;10.75;;;;;;;16.79;96.34;98137.69;10329118;28;20036;-50
2023/06/05 05:39:35;;;;;;;25.13;11.63;;;;;;;17.06;95.86;98138.94;10331117;28;20037;-50
2023/06/05 05:44:34;;;;;;;16.10;9.70;;;;;;;17.23;91.14;98131.56;10334443;28;20076;-53
2023/06/05 05:49:33;;;;;;;16.30;8.82;;;;;;;17.41;91.95;98124.19;10333641;28;20045;-53
2023/06/05 05:54:32;;;;;;;13.50;9.38;;;;;;;17.73;91.46;98126.94;10333751;28;20057;-50
2023/06/05 05:59:31;;;;;;;16.70;9.77;;;;;;;18.01;91.89;98126.28;10333068;28;20408;-52
2023/06/05 06:04:30;;;;;;;17.63;10.32;;;;;;;18.04;89.49;98131.47;10329449;28;20024;-53
2023/06/05 06:09:30;;;;;;;16.65;10.25;;;;;;;17.75;89.62;98091.00;10335169;28;20464;-51
2023/06/05 06:14:28;;;;;;;16.55;9.82;;;;;;;18.37;90.80;98124.47;10331341;28;20072;-52
2023/06/05 06:19:28;;;;;;;22.05;11.30;;;;;;;18.33;86.94;98132.47;10330926;28;20124;-53
2023/06/05 06:24:27;;;;;;;16.98;10.23;;;;;;;18.10;87.00;98126.03;10325621;28;20065;-53
2023/06/05 06:29:27;;;;;;;17.42;10.55;;;;;;;17.82;90.25;98109.25;10332724;28;20096;-52
2023/06/05 06:34:26;;;;;;;16.85;10.95;;;;;;;17.88;88.41;98111.75;10331957;28;20075;-53
2023/06/05 06:39:25;;;;;;;18.08;10.57;;;;;;;18.01;89.16;98117.53;10324868;28;20068;-50
2023/06/05 06:44:24;;;;;;;13.05;10.35;;;;;;;18.25;90.83;98102.94;10325567;28;20121;-52
2023/06/05 06:49:23;;;;;;;13.73;9.90;;;;;;;18.55;91.16;98091.59;10326902;28;20498;-53
2023/06/05 06:54:22;;;;;;;15.50;10.40;;;;;;;18.59;87.97;98095.81;10324718;28;20036;-51
2023/06/05 06:59:22;;;;;;;16.08;10.35;;;;;;;18.45;86.13;98094.50;10325783;28;20124;-51
2023/06/05 07:04:21;;;;;;;14.80;10.15;;;;;;;18.42;90.28;98084.94;10324125;28;20116;-52
2023/06/05 07:09:20;;;;;;;12.65;10.00;;;;;;;18.16;89.03;98073.34;10327988;28;20148;-52
2023/06/05 07:14:19;;;;;;;17.80;10.77;;;;;;;18.23;90.02;98070.59;10315904;28;20036;-50
2023/06/05 07:19:18;;;;;;;16.85;10.68;;;;;;;18.28;90.44;98076.56;10325207;28;20041;-53
2023/06/05 07:24:18;;;;;;;15.07;10.38;;;;;;;18.32;90.41;98067.72;10326439;28;20101;-51
2023/06/05 07:29:17;;;;;;;17.63;11.30;;;;;;;18.52;92.63;98072.41;10317425;28;20504;-52
2023/06/05 07:34:18;;;;;;;15.68;11.60;;;;;;;18.10;92.14;98039.38;10326244;28;20152;-52
2023/06/05 07:39:19;;;;;;;22.67;11.63;;;;;;;18.09;92.18;98056.03;10326840;28;20068;-52
2023/06/05 07:44:21;;;;;;;19.25;12.73;;;;;;;18.32;91.83;98078.22;10320455;28;20109;-50
2023/06/05 07:49:20;;;;;;;15.70;10.73;;;;;;;18.53;91.03;98072.38;10325360;28;20069;-52
2023/06/05 07:54:20;;;;;;;15.70;11.48;;;;;;;18.61;92.81;98070.38;10326374;28;20156;-50
2023/06/05 07:59:24;;;;;;;17.88;11.82;;;;;;;18.75;92.96;98072.63;10324876;28;20073;-52
2023/06/05 08:04:25;;;;;;;16.65;11.50;;;;;;;19.03;91.38;98056.06;10321094;28;20119;-53
2023/06/05 08:09:24;;;;;;;19.45;12.43;;;;;;;19.49;91.55;98072.19;10324818;28;20095;-52
2023/06/05 08:14:23;;;;;;;17.10;11.93;;;;;;;19.65;87.08;98073.47;10319460;28;20124;-52
2023/06/05 08:19:22;;;;;;;13.77;11.10;;;;;;;19.74;88.20;98065.22;10323028;28;20123;-51
2023/06/05 08:24:21;;;;;;;14.70;10.63;;;;;;;20.07;87.64;98059.72;10320334;28;20168;-52
2023/06/05 08:29:20;;;;;;;12.43;10.02;;;;;;;20.28;84.32;98061.66;10324661;28;20124;-51
2023/06/05 08:34:19;;;;;;;11.70;9.57;;;;;;;20.27;84.65;98059.91;10324063;28;20281;-53
2023/06/05 08:39:18;;;;;;;13.35;10.02;;;;;;;20.12;84.58;98067.47;10324581;28;20045;-51
2023/06/05 08:44:17;;;;;;;12.52;10.13;;;;;;;20.32;85.29;98062.38;10325119;28;20033;-53
2023/06/05 08:49:20;;;;;;;15.90;10.10;;;;;;;20.83;87.04;98058.78;10323881;28;20085;-51
2023/06/05 08:54:19;;;;;;;12.55;9.68;;;;;;;21.02;83.50;98051.03;10326015;28;20144;-51
2023/06/05 08:59:20;;;;;;;12.63;9.63;;;;;;;21.42;84.12;98062.69;10333404;28;20065;-53
2023/06/05 09:04:19;;;;;;;13.93;9.75;;;;;;;21.76;81.08;98051.63;10332014;28;20124;-50
2023/06/05 09:09:19;;;;;;;13.13;9.70;;;;;;;21.80;80.28;98041.78;10334556;28;20025;-50
2023/06/05 09:14:25;;;;;;;11.75;8.25;;;;;;;21.86;74.12;98046.81;10333940;28;20831;-51
2023/06/05 09:19:27;;;;;;;11.07;8.85;;;;;;;22.03;71.95;98058.50;10335748;28;20124;-53
2023/06/05 09:24:30;;;;;;;12.20;9.23;;;;;;;22.41;75.35;98062.09;10332523;28;20810;-53
2023/06/05 09:30:01;;;;;;;9.27;7.88;;;;;;;23.26;72.64;98047.72;10331215;28;20072;-51
2023/06/05 09:35:03;;;;;;;10.68;7.95;;;;;;;23.58;63.75;98049.69;10328694;28;20121;-49
2023/06/05 09:40:07;;;;;;;14.57;8.02;;;;;;;23.92;63.39;98047.16;10332810;28;20064;-54
2023/06/05 09:45:12;;;;;;;14.02;8.07;;;;;;;24.53;62.47;98037.84;10331626;28;20112;-53
2023/06/05 09:50:23;;;;;;;9.60;7.93;;;;;;;24.30;59.41;98016.03;10329755;28;20450;-53
2023/06/05 09:55:28;;;;;;;12.38;9.25;;;;;;;24.69;60.82;98030.78;10328200;28;20544;-50
2023/06/05 10:00:29;;;;;;;10.90;8.65;;;;;;;25.18;58.86;98030.78;10330587;28;20124;-52
2023/06/05 10:05:29;;;;;;;12.65;10.38;;;;;;;25.96;55.35;98020.09;10332365;28;20104;-52
2023/06/05 10:10:29;;;;;;;10.52;7.70;;;;;;;25.94;54.58;98019.34;10332187;28;20139;-52
2023/06/05 10:15:32;;;;;;;14.32;8.35;;;;;;;25.60;54.61;97984.13;10330636;28;20117;-51
2023/06/05 10:20:34;;;;;;;9.90;8.20;;;;;;;26.16;56.73;97993.19;10332085;28;20523;-52
2023/06/05 10:25:36;;;;;;;11.80;7.22;;;;;;;26.17;53.21;97980.72;10329967;28;20125;-53
2023/06/05 10:30:53;;;;;;;8.85;7.60;;;;;;;26.52;55.75;97997.22;10330509;28;20687;-52
2023/06/05 10:36:16;;;;;;;10.27;8.50;;;;;;;26.10;54.36;98008.66;10332639;28;20449;-54
2023/06/05 10:41:17;;;;;;;9.60;7.97;;;;;;;25.73;52.38;97992.22;10330023;28;20072;-54
2023/06/05 10:46:35;;;;;;;9.93;7.60;;;;;;;25.56;55.51;97993.22;10326306;28;20168;-53
2023/06/05 10:51:37;;;;;;;8.85;7.13;;;;;;;25.80;57.45;97979.44;10329213;28;20080;-52
2023/06/05 10:56:56;;;;;;;12.32;7.88;;;;;;;25.88;56.13;97988.66;10326991;28;20171;-53
2023/06/05 11:07:15;;;;;;;18.67;8.32;;;;;;;26.49;52.10;97960.16;10329205;28;20065;-53
2023/06/05 11:12:14;;;;;;;11.32;7.78;;;;;;;26.17;52.06;97962.09;10329138;28;20548;-53
2023/06/05 11:17:34;;;;;;;10.23;7.45;;;;;;;25.91;50.98;97963.69;10327055;28;20504;-53
2023/06/05 11:22:33;;;;;;;10.23;7.63;;;;;;;25.64;51.72;97961.72;10328667;28;20877;-53
2023/06/05 11:27:43;;;;;;;7.78;6.40;;;;;;;25.27;52.49;97962.97;10327597;28;20104;-51
2023/06/05 11:32:43;;;;;;;9.20;6.78;;;;;;;25.35;54.18;97963.41;10329546;28;20068;-53
2023/06/05 11:37:42;;;;;;;10.13;5.97;;;;;;;25.15;53.34;97967.19;10329985;28;20113;-53
2023/06/05 11:42:41;;;;;;;6.95;5.88;;;;;;;24.84;54.24;97983.94;10329853;28;20026;-53
2023/06/05 11:47:41;;;;;;;6.55;4.75;;;;;;;25.07;57.13;97970.28;10330134;28;20128;-52
2023/06/05 11:52:40;;;;;;;5.70;4.20;;;;;;;24.87;56.66;97979.38;10330517;28;20061;-53
2023/06/05 11:57:44;;;;;;;7.28;4.35;;;;;;;24.29;58.26;97979.84;10329865;28;20671;-52
2023/06/05 12:02:43;;;;;;;9.30;4.57;;;;;;;23.79;59.75;97956.78;10331256;28;20056;-52
2023/06/05 12:07:42;;;;;;;6.50;4.35;;;;;;;23.87;61.60;97986.44;10331260;28;20077;-53
2023/06/05 12:12:53;;;;;;;7.45;4.72;;;;;;;23.46;62.75;97994.63;10331148;28;20131;-52
2023/06/05 12:17:54;;;;;;;9.25;4.80;;;;;;;23.15;66.31;97993.47;10331331;28;20080;-52
2023/06/05 12:22:53;;;;;;;7.05;4.82;;;;;;;22.74;70.44;97998.06;10331055;28;20105;-52
2023/06/05 12:27:52;;;;;;;8.63;5.43;;;;;;;22.20;75.88;97995.16;10330183;28;20052;-53
2023/06/05 12:32:52;;;;;;;7.13;5.47;;;;;;;21.82;77.03;97997.66;10330104;28;20030;-53
2023/06/05 12:37:51;;;;;;;7.40;5.72;;;;;;;21.34;78.33;97959.22;10329082;28;20072;-53
2023/06/05 12:42:50;;;;;;;8.90;6.18;;;;;;;21.29;79.91;98003.41;10328925;28;20056;-52
2023/06/05 12:47:49;;;;;;;9.13;5.72;;;;;;;21.24;81.91;97989.53;10326409;28;20136;-53
2023/06/05 12:52:56;;;;;;;9.68;5.93;;;;;;;21.43;81.11;97974.66;10326290;28;20092;-53
2023/06/05 12:57:55;;;;;;;8.00;5.22;;;;;;;21.59;78.89;97974.00;10323786;28;20148;-53
2023/06/05 13:02:55;;;;;;;8.40;5.70;;;;;;;21.65;75.73;97979.06;10323612;28;20091;-51
2023/06/05 13:07:54;;;;;;;8.20;6.15;;;;;;;21.61;78.25;97988.00;10322400;28;20112;-52
2023/06/05 13:12:53;;;;;;;8.52;5.38;;;;;;;21.64;75.50;97979.94;10322548;28;20227;-53
2023/06/05 13:17:52;;;;;;;9.10;5.13;;;;;;;;;;10322759;28;20175;-52
2023/06/05 13:22:51;;;;;;;6.32;4.72;;;;;;;21.89;74.23;97977.97;10322615;28;20037;-52
2023/06/05 13:27:50;;;;;;;7.38;5.28;;;;;;;22.09;73.01;97973.66;10320109;28;20428;-53
2023/06/05 13:32:52;;;;;;;6.10;4.88;;;;;;;22.38;70.54;97962.63;10320544;28;20039;-52
2023/06/05 13:37:51;;;;;;;6.22;4.50;;;;;;;23.02;69.27;97966.75;10321044;28;20128;-53
2023/06/05 13:42:51;;;;;;;6.85;4.90;;;;;;;23.35;69.36;97979.28;10327813;28;20084;-52
2023/06/05 13:47:51;;;;;;;7.80;5.00;;;;;;;23.52;70.48;97974.97;10329661;28;20179;-53
2023/06/05 13:52:53;;;;;;;11.60;6.35;;;;;;;23.19;76.09;97973.88;10330877;28;20080;-53
2023/06/05 13:57:52;;;;;;;17.40;5.78;;;;;;;23.25;75.14;97969.19;10327691;28;20128;-53
2023/06/05 14:02:51;;;;;;;10.80;5.72;;;;;;;23.61;72.64;97963.91;10327866;28;20036;-54
2023/06/05 14:07:52;;;;;;;9.43;4.75;;;;;;;23.92;72.22;97963.19;10328906;28;20112;-55
2023/06/05 14:12:52;;;;;;;8.00;4.47;;;;;;;23.91;68.31;97964.13;10328574;28;20112;-53
2023/06/05 14:17:51;;;;;;;6.75;4.93;;;;;;;23.44;70.24;97967.34;10329360;28;20117;-53
2023/06/05 14:22:51;;;;;;;9.98;5.10;;;;;;;23.14;70.70;97964.41;10328176;28;20120;-53
2023/06/05 14:27:50;;;;;;;5.93;4.03;;;;;;;23.56;70.02;97971.19;10328201;28;20109;-53
2023/06/05 14:32:49;;;;;;;7.03;4.60;;;;;;;23.56;69.18;97958.84;10327562;28;20044;-53
2023/06/05 14:37:48;;;;;;;6.47;4.65;;;;;;;23.82;66.14;97943.41;10327100;28;20528;-53
2023/06/05 14:42:49;;;;;;;6.75;4.55;;;;;;;24.00;65.95;97933.63;10325969;28;20041;-53
2023/06/05 14:47:50;;;;;;;6.45;4.63;;;;;;;24.03;63.94;97933.47;10325120;28;20077;-53
2023/06/05 14:52:49;;;;;;;7.55;4.80;;;;;;;24.08;63.98;97915.53;10331108;28;20064;-53
2023/06/05 14:57:48;;;;;;;5.93;4.28;;;;;;;24.19;61.82;97912.31;10329634;28;20026;-53
2023/06/05 15:02:47;;;;;;;12.15;5.55;;;;;;;24.19;62.14;97888.44;10327506;28;20068;-53
2023/06/05 15:07:46;;;;;;;6.13;4.95;;;;;;;24.18;61.97;97922.06;10318676;28;20048;-53
2023/06/05 15:12:45;;;;;;;6.75;4.90;;;;;;;23.86;62.32;97921.09;10317391;28;20508;-53
2023/06/05 15:17:44;;;;;;;9.32;5.63;;;;;;;23.66;63.48;97913.34;10320704;28;20120;-53
2023/06/05 15:22:43;;;;;;;7.97;5.22;;;;;;;23.43;63.35;97895.00;10319638;28;20120;-53
2023/06/05 15:27:42;;;;;;;7.18;5.20;;;;;;;23.57;64.90;97904.06;10328187;28;20069;-53
2023/06/05 15:32:43;;;;;;;8.65;5.80;;;;;;;23.84;67.48;97909.69;10329310;28;20108;-53
2023/06/05 15:37:42;;;;;;;7.10;5.07;;;;;;;23.95;65.78;97907.34;10325530;28;20072;-54
2023/06/05 15:42:43;;;;;;;9.63;5.43;;;;;;;23.50;65.28;97839.94;10313526;28;20052;-53
2023/06/05 15:47:42;;;;;;;9.40;4.95;;;;;;;24.09;63.51;97906.63;10321658;28;20136;-55
2023/06/05 15:52:41;;;;;;;8.18;5.38;;;;;;;23.93;64.57;97917.19;10321250;28;20167;-52
2023/06/05 15:57:40;;;;;;;7.50;4.75;;;;;;;23.29;67.19;97928.41;10323303;28;20036;-52
2023/06/05 16:02:39;;;;;;;7.38;4.80;;;;;;;23.04;66.02;97916.38;10325022;28;20490;-54
2023/06/05 16:07:38;;;;;;;5.75;4.60;;;;;;;22.66;68.57;97926.13;10325035;28;20751;-52
2023/06/05 16:12:37;;;;;;;8.13;5.70;;;;;;;22.45;72.45;97920.03;10323824;28;20128;-52
2023/06/05 16:17:39;;;;;;;7.10;5.00;;;;;;;22.30;74.28;97898.69;10323465;28;20128;-52
2023/06/05 16:22:38;;;;;;;6.90;4.80;;;;;;;22.58;73.57;97922.06;10322273;28;20076;-53
2023/06/05 16:27:37;;;;;;;9.30;5.05;;;;;;;22.17;74.56;97881.66;10324110;28;20021;-53
2023/06/05 16:32:36;;;;;;;7.43;4.68;;;;;;;22.45;75.86;97912.13;10322061;28;20079;-53
2023/06/05 16:37:35;;;;;;;7.70;5.28;;;;;;;22.70;75.03;97904.75;10323814;28;20033;-53
2023/06/05 16:42:34;;;;;;;11.13;5.68;;;;;;;22.80;74.31;97905.19;10323531;28;20533;-52
2023/06/05 16:47:33;;;;;;;6.32;4.72;;;;;;;22.90;69.47;97908.25;10322885;28;20595;-53
2023/06/05 16:52:32;;;;;;;5.85;4.68;;;;;;;22.93;65.75;97895.72;10322100;28;20120;-53
2023/06/05 16:57:31;;;;;;;7.45;4.85;;;;;;;22.94;66.16;97901.88;10323867;28;20045;-55
2023/06/05 17:02:30;;;;;;;7.72;5.70;;;;;;;22.87;67.01;97906.59;10324024;28;20076;-53
2023/06/05 17:07:29;;;;;;;7.30;4.90;;;;;;;22.80;67.20;97908.69;10323588;28;20113;-54
2023/06/05 17:12:28;;;;;;;7.50;5.10;;;;;;;22.80;68.56;97902.53;10322286;28;20133;-53
2023/06/05 17:17:27;;;;;;;7.53;4.85;;;;;;;22.69;68.59;97892.44;10329178;28;20029;-53
2023/06/05 17:22:26;;;;;;;8.18;5.13;;;;;;;22.70;68.00;97907.38;10331087;28;20040;-52
2023/06/05 17:27:25;;;;;;;8.98;5.25;;;;;;;22.57;69.25;97903.59;10329814;28;20073;-53
2023/06/05 17:32:25;;;;;;;8.23;5.35;;;;;;;22.32;70.83;97888.91;10330739;28;20124;-53
2023/06/05 17:37:24;;;;;;;9.48;6.05;;;;;;;22.30;71.44;97911.91;10330216;28;20113;-53
2023/06/05 17:42:23;;;;;;;8.65;5.80;;;;;;;22.05;73.10;97906.00;10331804;28;20069;-53
2023/06/05 17:47:22;;;;;;;11.77;6.78;;;;;;;21.94;74.54;97915.25;10333746;28;20069;-54
2023/06/05 17:52:22;;;;;;;10.15;7.05;;;;;;;21.62;76.24;97916.66;10332965;28;20075;-54
2023/06/05 17:57:20;;;;;;;10.20;7.65;;;;;;;21.34;77.81;97922.25;10333156;28;20064;-54
2023/06/05 18:02:19;;;;;;;10.98;7.90;;;;;;;21.06;79.34;97923.34;10333879;28;20047;-53
2023/06/05 18:07:23;;;;;;;12.80;7.78;;;;;;;20.80;80.40;97936.75;10332520;28;20021;-53
2023/06/05 18:12:21;;;;;;;13.55;7.82;;;;;;;20.57;81.71;97940.25;10331246;28;20073;-54
2023/06/05 18:17:20;;;;;;;12.43;8.30;;;;;;;20.36;82.46;97948.03;10331779;28;20116;-53
2023/06/05 18:22:19;;;;;;;13.07;8.45;;;;;;;20.14;83.68;97953.25;10331595;28;20029;-54
2023/06/05 18:27:18;;;;;;;14.43;8.95;;;;;;;19.97;84.44;97950.34;10330814;28;20046;-53
2023/06/05 18:32:18;;;;;;;11.80;8.13;;;;;;;19.77;85.20;97965.09;10331357;28;20069;-52
2023/06/05 18:37:17;;;;;;;11.60;7.82;;;;;;;19.63;85.53;97965.56;10331523;28;20064;-53
2023/06/05 18:42:17;;;;;;;16.98;8.82;;;;;;;19.49;86.65;97969.53;10329266;28;20041;-52
2023/06/05 18:47:16;;;;;;;12.88;9.20;;;;;;;19.29;87.08;97968.41;10327648;28;20128;-53
2023/06/05 18:52:15;;;;;;;13.40;8.60;;;;;;;19.11;87.84;97966.38;10328000;28;20095;-53
2023/06/05 18:57:16;;;;;;;12.23;8.50;;;;;;;18.96;88.35;97976.47;10326412;28;20129;-55
2023/06/05 19:02:15;;;;;;;15.73;8.80;;;;;;;18.66;88.60;97959.84;10327411;28;20492;-54
2023/06/05 19:07:14;;;;;;;15.50;8.55;;;;;;;18.55;88.07;97980.31;10325056;28;20108;-54
2023/06/05 19:12:13;;;;;;;12.88;8.27;;;;;;;18.34;87.31;97971.31;10324878;28;20483;-54
2023/06/05 19:17:12;;;;;;;13.52;7.45;;;;;;;18.19;87.21;97973.44;10325581;28;20041;-53
2023/06/05 19:22:11;;;;;;;9.93;6.90;;;;;;;17.96;87.07;97975.84;10326848;28;20112;-53
2023/06/05 19:27:10;;;;;;;11.10;7.30;;;;;;;17.80;86.57;97970.19;10324506;28;20068;-53
2023/06/05 19:32:09;;;;;;;14.68;7.75;;;;;;;17.91;86.10;97980.38;10326476;28;20029;-53
2023/06/05 19:37:08;;;;;;;10.73;7.10;;;;;;;17.72;85.64;97951.94;10325217;28;20033;-53
2023/06/05 19:42:08;;;;;;;14.70;8.68;;;;;;;17.49;86.49;97928.09;10327430;28;20542;-53
2023/06/05 19:47:08;;;;;;;12.90;8.43;;;;;;;17.69;88.67;97978.28;10328330;28;20334;-54
2023/06/05 19:52:06;;;;;;;15.27;8.73;;;;;;;17.59;89.55;97982.06;10328119;28;20124;-55
2023/06/05 19:57:07;;;;;;;18.58;9.70;;;;;;;17.52;93.18;97986.59;10327385;28;20104;-55
2023/06/05 20:02:08;;;;;;;14.75;11.38;;;;;;;17.59;93.67;97992.56;10328989;28;20527;-55
2023/06/05 20:07:08;;;;;;;18.90;11.55;;;;;;;17.55;94.32;97985.66;10328362;28;20072;-54
2023/06/05 20:12:07;;;;;;;24.40;13.57;;;;;;;17.48;96.50;97982.31;10328489;28;20072;-52
2023/06/05 20:17:07;;;;;;;20.95;14.88;;;;;;;17.40;96.83;97991.28;10327603;28;20061;-54
2023/06/05 20:22:06;;;;;;;24.85;15.70;;;;;;;17.35;97.10;97987.03;10328749;28;20091;-53
2023/06/05 20:27:05;;;;;;;23.30;15.35;;;;;;;17.29;97.34;97999.44;10327912;28;20064;-52
2023/06/05 20:32:04;;;;;;;25.70;16.17;;;;;;;17.10;99.14;97980.66;10327801;28;20488;-54
2023/06/05 20:37:04;;;;;;;28.58;17.90;;;;;;;17.06;99.21;97986.84;10327223;28;20077;-53
2023/06/05 20:42:04;;;;;;;28.35;17.77;;;;;;;17.08;100.00;98000.78;10323003;28;20081;-52
2023/06/05 20:47:03;;;;;;;27.67;17.27;;;;;;;16.99;100.00;97990.53;10323605;28;20349;-51
2023/06/05 20:52:02;;;;;;;29.75;17.30;;;;;;;16.97;100.00;97994.94;10329059;28;20124;-53
2023/06/05 20:57:11;;;;;;;28.92;17.10;;;;;;;16.59;100.00;97960.78;10323984;28;20149;-52
2023/06/05 21:02:10;;;;;;;25.58;17.80;;;;;;;16.52;100.00;97946.09;10330863;28;20480;-53
2023/06/05 21:07:09;;;;;;;25.17;16.55;;;;;;;16.72;100.00;97998.06;10332240;28;20076;-53
2023/06/05 21:12:09;;;;;;;25.02;16.45;;;;;;;16.66;100.00;97999.06;10331519;28;20080;-52
2023/06/05 21:17:09;;;;;;;25.70;16.20;;;;;;;16.50;100.00;97984.56;10331619;28;20120;-51
2023/06/05 21:22:08;;;;;;;25.95;15.45;;;;;;;16.57;100.00;98001.03;10331753;28;20556;-52
2023/06/05 21:27:10;;;;;;;25.73;15.50;;;;;;;16.59;100.00;97991.38;10331189;28;20128;-51
2023/06/05 21:32:09;;;;;;;25.33;15.55;;;;;;;16.55;100.00;97985.31;10331867;28;20124;-52
2023/06/05 21:37:15;;;;;;;21.85;15.20;;;;;;;16.55;100.00;97981.84;10330577;28;20104;-52
2023/06/05 21:42:15;;;;;;;28.00;15.65;;;;;;;16.51;100.00;97981.03;10331754;28;20136;-51
2023/06/05 21:47:17;;;;;;;24.85;15.02;;;;;;;16.35;100.00;97977.91;10329919;28;20077;-52
2023/06/05 21:52:16;;;;;;;26.92;15.20;;;;;;;16.24;100.00;97985.09;10330066;28;20512;-52
2023/06/05 21:57:16;;;;;;;22.35;14.32;;;;;;;16.18;100.00;97979.97;10329429;28;20129;-52
2023/06/05 22:02:15;;;;;;;23.05;16.67;;;;;;;16.14;100.00;97983.53;10329208;28;20168;-51
2023/06/05 22:07:14;;;;;;;20.83;14.77;;;;;;;15.87;100.00;97975.34;10326666;28;20124;-52
2023/06/05 22:12:17;;;;;;;21.45;14.10;;;;;;;15.89;100.00;97999.72;10328588;28;20076;-52
2023/06/05 22:17:16;;;;;;;22.85;14.20;;;;;;;15.86;100.00;98002.41;10325398;28;20136;-52
2023/06/05 22:22:15;;;;;;;26.85;14.07;;;;;;;15.82;100.00;98009.44;10325074;28;20033;-50
2023/06/05 22:27:15;;;;;;;25.90;14.65;;;;;;;15.82;100.00;98008.59;10325324;28;20033;-52
2023/06/05 22:32:14;;;;;;;23.77;14.60;;;;;;;15.81;100.00;97996.38;10327146;28;20091;-52
2023/06/05 22:37:13;;;;;;;23.40;14.95;;;;;;;15.77;100.00;98006.00;10328000;28;20136;-51
2023/06/05 22:42:12;;;;;;;24.73;15.18;;;;;;;15.78;100.00;97999.88;10328621;28;20112;-50
2023/06/05 22:47:11;;;;;;;24.67;14.63;;;;;;;15.73;100.00;97998.25;10327469;28;20041;-51
2023/06/05 22:52:14;;;;;;;22.05;14.57;;;;;;;15.60;100.00;97998.47;10327891;28;20536;-52
2023/06/05 22:57:13;;;;;;;25.95;14.52;;;;;;;15.48;100.00;97998.66;10327723;28;20080;-51
2023/06/05 23:02:12;;;;;;;24.35;14.77;;;;;;;15.58;100.00;98004.63;10327549;28;20044;-52